Bear Grove, Illinois
Current Conditions -  °F | °C
As of 5:55 PM on Monday 20 Oct 2014 (Local Time) from KSLO Reporting Station
Clear Clear  
Wind Chill: 68°   Ceiling: Unl
Heat Index: 68°   Visibility: 10mi
Dew Point: 44°   Wind: 7mph
Humidity: 42%   Direction: 310°NW
Pressure: 29.94"   Gusts: NA
Location:  38.8752°N, 89.1076°W
Report Text: KSLO 202255Z AUTO 31006KT 10SM CLR 20/07 A2994 RMK AO2 T02020068
Loading
Personal Weather Stations






























Interactive Weather Map
Tropical Storm Tracking
New forecast layout! Learn more

10-Day Weather Forecast

Advertisements
Track Severe Weather on mobile